Time;durP1;ratioP1;P1;durP2;ratioP2;P2;SDS_P1;SDS_P2;PMS_P1;PMS_P2;Temp;Humidity;BMP_temperature;BMP_pressure;BME280_temperature;BME280_humidity;BME280_pressure;Samples;Min_cycle;Max_cycle;Signal;HPM_P1;HPM_P2
2022/07/06 00:02:12;;;;;;;0.90;0.60;;;;;;;15.58;76.01;102048.41;6195246;28;20057;-72
2022/07/06 00:05:14;;;;;;;1.77;0.57;;;;;;;15.59;75.68;102054.56;6199201;28;20053;-71
2022/07/06 00:08:15;;;;;;;1.85;0.50;;;;;;;15.52;76.57;102047.84;6197107;28;20525;-71
2022/07/06 00:11:17;;;;;;;2.88;0.57;;;;;;;15.53;77.00;102046.91;6199151;28;20061;-72
2022/07/06 00:14:18;;;;;;;1.35;0.40;;;;;;;15.57;77.48;102043.16;6198797;28;20042;-72
2022/07/06 00:17:21;;;;;;;1.48;0.70;;;;;;;15.50;77.66;102053.25;6198456;28;20054;-72
2022/07/06 00:20:22;;;;;;;2.08;0.60;;;;;;;15.38;78.44;102044.13;6198996;28;20050;-71
2022/07/06 00:23:24;;;;;;;0.52;0.52;;;;;;;15.28;79.37;102044.72;6198977;28;20717;-71
2022/07/06 00:26:25;;;;;;;0.60;0.40;;;;;;;15.21;80.03;102047.69;6198781;28;20499;-71
2022/07/06 00:29:26;;;;;;;1.67;0.50;;;;;;;15.18;80.58;102050.50;6198586;28;20057;-72
2022/07/06 00:32:29;;;;;;;2.40;0.80;;;;;;;15.22;80.48;102052.06;6192197;28;20499;-72
2022/07/06 00:35:30;;;;;;;3.55;0.77;;;;;;;15.18;80.96;102042.56;6197341;28;20058;-72
2022/07/06 00:38:32;;;;;;;0.70;0.50;;;;;;;15.19;81.11;102046.91;6198771;28;20050;-72
2022/07/06 00:41:33;;;;;;;1.85;0.50;;;;;;;15.14;81.29;102045.44;6184078;28;20084;-71
2022/07/06 00:44:34;;;;;;;0.38;0.38;;;;;;;15.11;82.01;102050.88;6174475;28;20054;-72
2022/07/06 00:47:37;;;;;;;0.55;0.52;;;;;;;15.14;81.33;102053.38;6174256;28;20061;-72
2022/07/06 00:50:39;;;;;;;0.45;0.40;;;;;;;15.05;82.50;102048.56;6174404;28;20046;-72
2022/07/06 00:53:41;;;;;;;0.47;0.40;;;;;;;15.06;82.31;102048.47;6174032;28;20050;-71
2022/07/06 00:56:43;;;;;;;0.77;0.63;;;;;;;15.07;83.26;102046.66;6173943;28;20051;-72
2022/07/06 00:59:44;;;;;;;0.63;0.50;;;;;;;15.00;82.41;102053.25;6173684;28;20046;-71
2022/07/06 01:02:47;;;;;;;1.15;0.60;;;;;;;14.82;83.50;102055.88;6175156;28;20414;-72
2022/07/06 01:05:48;;;;;;;1.60;0.90;;;;;;;14.71;84.16;102056.38;6173675;28;20050;-72
2022/07/06 01:08:50;;;;;;;3.22;0.57;;;;;;;14.74;84.17;102063.34;6174111;28;20054;-72
2022/07/06 01:11:53;;;;;;;1.35;0.40;;;;;;;14.76;83.83;102058.84;6173864;28;20062;-72
2022/07/06 01:14:55;;;;;;;5.03;0.75;;;;;;;14.64;84.35;102057.66;6173826;28;20047;-71
2022/07/06 01:17:59;;;;;;;1.30;0.60;;;;;;;14.59;85.34;102050.88;6173828;28;20051;-71
2022/07/06 01:21:10;;;;;;;0.52;0.52;;;;;;;14.48;85.55;102059.31;6173519;28;20050;-73
2022/07/06 01:24:11;;;;;;;0.38;0.38;;;;;;;14.50;86.58;102056.63;6173661;28;20047;-74
2022/07/06 01:27:13;;;;;;;1.40;0.40;;;;;;;14.53;85.63;102052.00;6173572;28;20066;-71
2022/07/06 01:30:16;;;;;;;1.08;0.75;;;;;;;14.46;86.59;102051.44;6173482;28;20446;-74
2022/07/06 01:33:17;;;;;;;0.50;0.43;;;;;;;14.47;86.37;102049.63;6174505;28;20051;-72
2022/07/06 01:36:20;;;;;;;0.65;0.63;;;;;;;14.36;87.69;102051.97;6173590;28;20043;-71
2022/07/06 01:39:22;;;;;;;0.68;0.50;;;;;;;14.35;89.21;102060.81;6173361;28;20058;-72
2022/07/06 01:42:23;;;;;;;5.20;1.02;;;;;;;14.37;89.40;102048.38;6173680;28;20054;-72
2022/07/06 01:45:25;;;;;;;1.25;0.77;;;;;;;14.35;91.50;102055.50;6173079;28;20053;-72
2022/07/06 01:48:26;;;;;;;0.80;0.57;;;;;;;14.40;90.78;102046.44;6173745;28;20659;-72
2022/07/06 01:51:29;;;;;;;1.27;0.60;;;;;;;14.39;90.28;102051.78;6173210;28;20058;-72
2022/07/06 01:54:30;;;;;;;0.50;0.50;;;;;;;14.36;89.90;102054.59;6185282;28;20050;-72
2022/07/06 01:57:32;;;;;;;0.90;0.60;;;;;;;14.27;90.09;102055.91;6206653;28;20125;-72
2022/07/06 02:00:33;;;;;;;1.52;0.68;;;;;;;14.16;90.32;102050.25;6207650;28;20494;-71
2022/07/06 02:03:35;;;;;;;1.92;0.70;;;;;;;14.15;90.90;102053.84;6206320;28;20046;-72
2022/07/06 02:06:37;;;;;;;2.75;0.50;;;;;;;14.19;90.61;102053.63;6207688;28;20053;-72
2022/07/06 02:09:39;;;;;;;1.35;0.82;;;;;;;14.10;90.80;102050.56;6207860;28;20500;-72
2022/07/06 02:12:40;;;;;;;3.90;0.47;;;;;;;14.12;90.53;102046.88;6211694;28;20053;-72
2022/07/06 02:15:41;;;;;;;0.90;0.63;;;;;;;14.08;90.40;102048.00;6209445;28;20062;-71
2022/07/06 02:18:43;;;;;;;2.83;1.00;;;;;;;14.03;91.15;102047.31;6201292;28;20054;-72
2022/07/06 02:21:45;;;;;;;0.50;0.50;;;;;;;13.95;92.01;102052.13;6201699;28;20046;-71
2022/07/06 02:24:47;;;;;;;1.92;0.70;;;;;;;13.91;92.31;102051.41;6199435;28;20487;-72
2022/07/06 02:27:48;;;;;;;2.83;0.68;;;;;;;13.84;92.40;102046.47;6209607;28;20050;-71
2022/07/06 02:30:49;;;;;;;3.13;0.70;;;;;;;13.73;93.85;102046.13;6209526;28;20398;-72
2022/07/06 02:33:51;;;;;;;3.85;0.80;;;;;;;13.75;93.92;102053.03;6208435;28;20061;-74
2022/07/06 02:36:53;;;;;;;1.58;0.95;;;;;;;13.82;94.01;102046.56;6219787;28;20049;-74
2022/07/06 02:39:55;;;;;;;1.10;0.70;;;;;;;13.91;93.90;102050.56;6208563;28;20054;-73
2022/07/06 02:42:56;;;;;;;5.22;0.93;;;;;;;13.96;93.48;102043.28;6183269;28;20055;-74
2022/07/06 02:45:57;;;;;;;1.33;1.02;;;;;;;13.99;92.94;102044.91;6176902;28;20043;-73
2022/07/06 02:48:59;;;;;;;0.80;0.73;;;;;;;13.96;93.07;102038.84;6192886;28;20055;-73
2022/07/06 02:52:01;;;;;;;1.50;0.82;;;;;;;13.93;93.33;102041.63;6200957;28;20050;-73
2022/07/06 02:55:03;;;;;;;0.93;0.80;;;;;;;13.89;93.98;102036.53;6200968;28;20437;-73
2022/07/06 02:58:04;;;;;;;0.93;0.65;;;;;;;13.90;94.16;102038.28;6200933;28;20050;-73
2022/07/06 03:01:05;;;;;;;1.23;0.65;;;;;;;13.83;94.72;102048.25;6201104;28;20513;-73
2022/07/06 03:04:07;;;;;;;1.63;0.88;;;;;;;13.82;94.79;102045.69;6200636;28;20062;-73
2022/07/06 03:07:09;;;;;;;1.55;0.70;;;;;;;13.76;95.90;102049.47;6198372;28;20509;-73
2022/07/06 03:10:11;;;;;;;2.47;1.00;;;;;;;13.81;95.96;102054.56;6176443;28;20054;-73
2022/07/06 03:13:12;;;;;;;0.55;0.45;;;;;;;13.74;95.78;102061.91;6176510;28;20494;-73
2022/07/06 03:16:13;;;;;;;1.77;0.95;;;;;;;13.73;96.47;102054.06;6176455;28;20054;-76
2022/07/06 03:19:15;;;;;;;1.55;0.60;;;;;;;13.79;96.15;102062.53;6176413;28;20502;-73
2022/07/06 03:22:17;;;;;;;1.33;0.80;;;;;;;13.79;95.64;102061.69;6175764;28;20058;-74
2022/07/06 03:25:19;;;;;;;1.20;0.82;;;;;;;13.76;96.08;102061.81;6185883;28;20050;-74
2022/07/06 03:28:20;;;;;;;5.07;0.70;;;;;;;13.84;95.39;102067.63;6199376;28;20050;-75
2022/07/06 03:31:21;;;;;;;1.38;0.52;;;;;;;13.77;95.96;102060.91;6197629;28;20056;-74
2022/07/06 03:34:22;;;;;;;1.40;0.57;;;;;;;13.82;95.90;102065.06;6198782;28;20054;-73
2022/07/06 03:37:25;;;;;;;1.20;0.80;;;;;;;13.73;95.67;102068.13;6199737;28;20046;-74
2022/07/06 03:40:26;;;;;;;0.80;0.65;;;;;;;13.75;96.25;102068.03;6196845;28;20046;-75
2022/07/06 03:43:28;;;;;;;0.43;0.40;;;;;;;13.74;95.93;102072.47;6196749;28;20510;-77
2022/07/06 03:46:29;;;;;;;1.17;0.80;;;;;;;13.78;97.09;102071.41;6199532;28;20054;-74
2022/07/06 03:49:31;;;;;;;1.17;0.73;;;;;;;13.80;96.19;102066.03;6199676;28;20073;-75
2022/07/06 03:52:35;;;;;;;0.43;0.43;;;;;;;13.78;96.88;102071.41;6199568;28;20410;-74
2022/07/06 03:55:36;;;;;;;3.78;0.75;;;;;;;13.75;96.80;102063.59;6199352;28;20054;-75
2022/07/06 03:58:37;;;;;;;0.88;0.60;;;;;;;13.76;96.91;102060.03;6199450;28;20058;-74
2022/07/06 04:01:39;;;;;;;0.60;0.60;;;;;;;13.79;96.78;102054.63;6198708;28;20057;-75
2022/07/06 04:04:40;;;;;;;3.90;0.80;;;;;;;13.81;97.08;102066.00;6198909;28;20069;-74
2022/07/06 04:07:43;;;;;;;1.70;1.00;;;;;;;13.89;96.78;102061.19;6199656;28;20054;-74
2022/07/06 04:10:44;;;;;;;5.35;0.60;;;;;;;13.98;96.91;102065.19;6197481;28;20391;-74
2022/07/06 04:13:45;;;;;;;2.33;0.70;;;;;;;14.03;96.86;102064.97;6199187;28;20551;-74
2022/07/06 04:16:47;;;;;;;2.83;0.77;;;;;;;14.00;97.01;102076.56;6196974;28;20038;-74
2022/07/06 04:19:48;;;;;;;1.08;0.88;;;;;;;14.00;96.57;102076.56;6198727;28;20054;-74
2022/07/06 04:22:51;;;;;;;0.88;0.88;;;;;;;13.89;97.69;102073.53;6199070;28;20065;-74
2022/07/06 04:25:52;;;;;;;1.10;0.85;;;;;;;13.82;97.48;102083.56;6198821;28;20138;-73
2022/07/06 04:28:55;;;;;;;1.73;0.65;;;;;;;13.86;97.54;102077.19;6230824;22;20057;-77
2022/07/06 04:31:56;;;;;;;2.28;1.20;;;;;;;13.81;97.93;102081.84;6223522;28;20060;-77
2022/07/06 04:34:57;;;;;;;4.05;0.90;;;;;;;13.77;98.30;102079.41;6201263;28;20053;-77
2022/07/06 04:38:00;;;;;;;0.90;0.80;;;;;;;13.80;99.28;102079.25;6201309;28;20050;-77
2022/07/06 04:41:01;;;;;;;3.83;0.70;;;;;;;13.88;98.89;102072.69;6217881;28;20065;-77
2022/07/06 04:44:03;;;;;;;2.33;0.77;;;;;;;13.94;98.34;102071.53;6225611;28;20057;-77
2022/07/06 04:47:04;;;;;;;1.20;0.70;;;;;;;13.94;98.21;102067.13;6225289;28;20053;-77
2022/07/06 04:50:07;;;;;;;0.90;0.60;;;;;;;13.98;98.12;102066.97;6225097;28;20072;-77
2022/07/06 04:53:09;;;;;;;3.97;0.77;;;;;;;14.01;98.08;102069.50;6225308;28;20057;-77
2022/07/06 04:56:11;;;;;;;2.83;0.95;;;;;;;14.09;97.79;102073.50;6225032;28;20060;-77
2022/07/06 04:59:12;;;;;;;3.47;0.85;;;;;;;14.12;97.50;102073.31;6225158;28;20053;-77
2022/07/06 05:02:13;;;;;;;1.63;0.85;;;;;;;14.19;97.75;102066.84;6224163;28;20057;-77
2022/07/06 05:05:15;;;;;;;0.88;0.60;;;;;;;14.17;95.95;102066.06;6223277;28;20049;-77
2022/07/06 05:08:17;;;;;;;4.40;1.00;;;;;;;14.18;97.31;102066.91;6224124;28;20045;-77
2022/07/06 05:11:18;;;;;;;2.08;0.77;;;;;;;14.16;97.51;102072.25;6224501;28;20497;-77
2022/07/06 05:14:20;;;;;;;0.55;0.52;;;;;;;14.19;97.82;102079.19;6224010;28;20057;-77
2022/07/06 05:17:21;;;;;;;0.60;0.60;;;;;;;14.19;96.89;102066.84;6224580;28;20151;-78
2022/07/06 05:20:23;;;;;;;0.70;0.65;;;;;;;14.23;97.19;102070.19;6224110;28;20082;-77
2022/07/06 05:23:25;;;;;;;0.85;0.60;;;;;;;14.29;97.64;102067.25;6223545;28;20057;-77
2022/07/06 05:26:27;;;;;;;1.27;0.70;;;;;;;14.24;97.07;102069.25;6225235;28;20445;-77
2022/07/06 05:29:28;;;;;;;3.03;0.75;;;;;;;14.26;97.25;102071.81;6237614;28;20056;-77
2022/07/06 05:32:29;;;;;;;1.95;0.65;;;;;;;14.34;97.23;102067.88;6230403;28;20054;-77
2022/07/06 05:35:31;;;;;;;2.22;0.90;;;;;;;14.37;97.28;102072.19;6226201;28;20049;-76
2022/07/06 05:38:34;;;;;;;0.65;0.60;;;;;;;14.44;98.64;102076.22;6232060;28;20058;-77
2022/07/06 05:41:35;;;;;;;2.22;0.73;;;;;;;14.55;97.66;102084.56;6235266;28;20046;-76
2022/07/06 05:44:36;;;;;;;2.70;0.90;;;;;;;14.41;95.69;102079.91;6242614;28;20049;-77
2022/07/06 05:50:57;;;;;;;1.33;0.70;;;;;;;14.38;94.31;102087.97;6240708;28;20053;-77
2022/07/06 05:53:59;;;;;;;1.55;0.80;;;;;;;14.43;93.67;102083.31;6240384;28;20045;-77
2022/07/06 05:57:00;;;;;;;2.78;0.60;;;;;;;14.49;93.40;102086.63;6238590;28;20421;-77
2022/07/06 06:00:02;;;;;;;0.70;0.70;;;;;;;14.56;92.17;102090.69;6238680;28;20050;-77
2022/07/06 06:03:04;;;;;;;1.90;0.60;;;;;;;14.56;91.36;102090.69;6239660;28;20130;-77
2022/07/06 06:06:05;;;;;;;2.80;0.70;;;;;;;14.55;91.73;102097.78;6238238;28;20053;-77
2022/07/06 06:09:08;;;;;;;2.25;0.93;;;;;;;14.63;91.61;102097.41;6239366;28;20045;-77
2022/07/06 06:12:10;;;;;;;3.10;1.25;;;;;;;14.61;91.30;102097.47;6239625;28;20506;-77
2022/07/06 06:15:12;;;;;;;3.63;0.60;;;;;;;14.61;88.86;102104.56;6238071;28;20053;-77
2022/07/06 06:18:16;;;;;;;1.17;0.70;;;;;;;14.66;89.23;102100.75;6235857;28;20050;-77
2022/07/06 06:21:17;;;;;;;1.00;0.82;;;;;;;14.63;89.94;102115.94;6240766;28;20053;-77
2022/07/06 06:24:20;;;;;;;2.83;0.77;;;;;;;14.69;90.53;102107.69;6234152;28;20060;-77
2022/07/06 06:27:22;;;;;;;1.38;0.60;;;;;;;14.74;88.80;102103.03;6240100;28;20054;-77
2022/07/06 06:30:23;;;;;;;2.05;0.63;;;;;;;14.69;88.89;102111.19;6238107;28;20428;-77
2022/07/06 06:33:24;;;;;;;1.35;0.60;;;;;;;14.77;89.64;102110.81;6238792;28;20061;-77
2022/07/06 06:36:26;;;;;;;1.40;0.70;;;;;;;14.87;89.05;102109.44;6237696;28;20056;-77
2022/07/06 06:39:28;;;;;;;3.63;0.82;;;;;;;14.95;88.88;102117.00;6243431;28;20413;-77
2022/07/06 06:42:30;;;;;;;1.10;0.85;;;;;;;15.03;86.66;102120.09;6247346;28;20053;-77
2022/07/06 06:45:31;;;;;;;4.43;1.00;;;;;;;14.96;87.49;102116.91;6227384;28;20061;-77
2022/07/06 06:48:33;;;;;;;2.53;0.70;;;;;;;14.97;87.32;102110.69;6228094;28;20060;-77
2022/07/06 06:51:34;;;;;;;3.53;0.90;;;;;;;14.96;87.18;102118.72;6227827;28;20053;-77
2022/07/06 06:54:37;;;;;;;1.42;0.70;;;;;;;15.01;86.50;102121.13;6226972;28;20049;-77
2022/07/06 06:57:38;;;;;;;2.33;0.60;;;;;;;15.02;87.12;102126.34;6227720;28;20049;-77
2022/07/06 07:00:39;;;;;;;1.02;0.60;;;;;;;15.08;86.86;102126.06;6226853;28;20041;-79
2022/07/06 07:03:41;;;;;;;0.30;0.30;;;;;;;15.14;86.66;102133.66;6226221;28;20042;-79
2022/07/06 07:06:42;;;;;;;1.52;0.75;;;;;;;15.20;86.05;102129.84;6227244;28;20082;-77
2022/07/06 07:09:45;;;;;;;0.68;0.47;;;;;;;15.16;85.31;102137.09;6227289;28;20628;-78
2022/07/06 07:12:46;;;;;;;0.60;0.32;;;;;;;15.19;86.30;102134.28;6227420;28;20049;-77
2022/07/06 07:15:47;;;;;;;0.75;0.47;;;;;;;15.27;85.93;102135.72;6227409;28;20052;-77
2022/07/06 07:18:49;;;;;;;2.97;0.75;;;;;;;15.35;86.24;102144.97;6227110;28;20524;-77
2022/07/06 07:21:50;;;;;;;0.85;0.60;;;;;;;15.44;84.68;102139.22;6226705;28;20045;-77
2022/07/06 07:24:53;;;;;;;0.80;0.47;;;;;;;15.49;84.10;102136.31;6227300;28;20453;-78
2022/07/06 07:27:54;;;;;;;2.67;0.60;;;;;;;15.50;82.81;102142.47;6226582;28;20053;-76
2022/07/06 07:30:56;;;;;;;2.00;0.50;;;;;;;15.53;82.85;102145.81;6226467;28;20053;-77
2022/07/06 07:33:58;;;;;;;2.75;0.57;;;;;;;15.56;83.30;102143.00;6220978;28;20057;-77
2022/07/06 07:36:59;;;;;;;4.80;0.60;;;;;;;15.65;82.26;102147.84;6221931;28;20050;-76
2022/07/06 07:40:04;;;;;;;1.98;0.75;;;;;;;15.71;82.23;102149.31;6225954;28;20053;-77
2022/07/06 07:43:05;;;;;;;3.00;0.65;;;;;;;15.83;82.83;102140.72;6226198;28;20418;-76
2022/07/06 07:46:07;;;;;;;1.92;0.50;;;;;;;15.82;79.34;102154.09;6225364;28;20467;-76
2022/07/06 07:49:08;;;;;;;0.70;0.60;;;;;;;15.85;79.75;102140.63;6225716;28;20061;-77
2022/07/06 07:52:09;;;;;;;2.60;0.30;;;;;;;15.98;79.53;102139.91;6219726;28;20056;-77
2022/07/06 07:55:12;;;;;;;2.63;0.50;;;;;;;16.05;76.67;102135.13;6225435;28;20053;-77
2022/07/06 07:58:14;;;;;;;3.08;0.52;;;;;;;16.16;77.04;102143.34;6223208;28;20054;-77
2022/07/06 08:01:15;;;;;;;1.38;0.85;;;;;;;16.24;77.73;102140.28;6221883;28;20050;-77
2022/07/06 08:04:17;;;;;;;0.93;0.73;;;;;;;16.30;77.39;102142.59;6220532;28;20046;-77
2022/07/06 08:07:18;;;;;;;0.45;0.35;;;;;;;16.33;73.79;102141.59;6214260;28;20058;-77
2022/07/06 08:10:21;;;;;;;2.08;0.40;;;;;;;16.33;74.74;102141.59;6223455;28;20042;-78
2022/07/06 08:13:23;;;;;;;2.63;0.40;;;;;;;16.33;72.94;102128.31;6223269;28;20061;-76
2022/07/06 08:16:24;;;;;;;0.55;0.50;;;;;;;16.34;72.28;102130.03;6226135;28;20057;-76
2022/07/06 08:19:25;;;;;;;0.32;0.30;;;;;;;16.47;71.01;102133.72;6223730;28;20053;-78
2022/07/06 08:22:29;;;;;;;3.28;0.25;;;;;;;16.40;71.40;102125.25;6224407;28;20057;-77
2022/07/06 08:25:32;;;;;;;2.35;0.90;;;;;;;16.51;71.63;102142.38;6223790;28;20518;-77
2022/07/06 08:28:34;;;;;;;1.50;0.45;;;;;;;16.55;68.78;102136.81;6232813;28;20053;-77
2022/07/06 08:31:35;;;;;;;0.70;0.52;;;;;;;16.57;65.75;102131.41;6223834;28;20053;-76
2022/07/06 08:34:36;;;;;;;0.30;0.20;;;;;;;16.65;66.14;102138.00;6222909;28;20050;-77
2022/07/06 08:37:38;;;;;;;1.00;0.50;;;;;;;16.79;63.99;102134.56;6242587;28;20049;-78
2022/07/06 08:40:41;;;;;;;0.90;0.45;;;;;;;16.81;64.13;102123.88;6236602;28;20057;-77
2022/07/06 08:43:43;;;;;;;1.35;0.47;;;;;;;16.92;64.60;102118.81;6224021;28;20073;-77
2022/07/06 08:46:45;;;;;;;0.65;0.20;;;;;;;16.96;62.87;102115.88;6222857;28;20112;-78
2022/07/06 08:49:47;;;;;;;0.98;0.40;;;;;;;16.99;63.31;102114.84;6223515;28;20410;-77
2022/07/06 08:52:49;;;;;;;2.05;0.38;;;;;;;16.92;63.38;102119.66;6221102;28;20525;-78
2022/07/06 08:55:52;;;;;;;8.45;0.50;;;;;;;16.85;63.45;102120.09;6223380;28;20064;-76
2022/07/06 08:58:55;;;;;;;1.08;0.30;;;;;;;16.78;63.71;102118.75;6223514;28;20057;-77
2022/07/06 09:01:56;;;;;;;0.20;0.20;;;;;;;16.70;64.31;102120.00;6222813;28;20061;-76
2022/07/06 09:04:58;;;;;;;1.58;0.88;;;;;;;16.79;64.16;102117.78;6222931;28;20049;-77
2022/07/06 09:08:00;;;;;;;0.57;0.30;;;;;;;16.79;65.31;102120.44;6223173;28;20188;-77
2022/07/06 09:11:03;;;;;;;1.05;0.55;;;;;;;16.88;65.64;102115.47;6223208;28;20053;-77
2022/07/06 09:14:05;;;;;;;2.60;0.50;;;;;;;17.05;65.08;102122.44;6221879;28;20378;-77
2022/07/06 09:17:07;;;;;;;0.30;0.30;;;;;;;17.21;63.87;102125.94;6213042;28;20504;-76
2022/07/06 09:20:10;;;;;;;0.70;0.30;;;;;;;17.29;63.87;102119.28;6220938;28;20529;-77
2022/07/06 09:23:16;;;;;;;2.17;0.40;;;;;;;17.45;64.22;102128.91;6223577;28;20441;-77
2022/07/06 09:26:20;;;;;;;3.90;0.40;;;;;;;17.50;62.61;102124.19;6223423;28;20050;-77
2022/07/06 09:29:27;;;;;;;2.08;0.52;;;;;;;17.46;62.38;102127.09;6220906;28;20050;-78
2022/07/06 09:32:28;;;;;;;0.70;0.22;;;;;;;17.46;63.15;102132.44;6222018;28;20065;-77
2022/07/06 09:35:32;;;;;;;1.10;0.43;;;;;;;17.31;61.17;102128.03;6219524;28;20050;-77
2022/07/06 09:38:33;;;;;;;0.32;0.32;;;;;;;17.19;61.84;102129.59;6224350;28;20054;-78
2022/07/06 09:41:36;;;;;;;3.00;0.60;;;;;;;17.32;61.45;102125.28;6224103;28;20076;-77
2022/07/06 09:44:39;;;;;;;1.02;0.40;;;;;;;17.36;62.59;102116.19;6224642;28;20057;-76
2022/07/06 09:47:47;;;;;;;2.45;0.95;;;;;;;17.39;61.44;102120.44;6224595;28;20050;-79
2022/07/06 09:50:51;;;;;;;0.45;0.45;;;;;;;17.35;62.50;102117.13;6224463;28;20058;-78
2022/07/06 09:53:53;;;;;;;0.88;0.32;;;;;;;17.24;61.14;102125.72;6225048;28;20056;-78
2022/07/06 09:56:57;;;;;;;0.90;0.35;;;;;;;17.15;62.42;102133.38;6225500;28;20050;-78
2022/07/06 09:59:59;;;;;;;0.20;0.20;;;;;;;17.10;62.09;102124.84;6225637;28;20046;-78
2022/07/06 10:03:02;;;;;;;1.35;0.43;;;;;;;17.09;61.15;102123.13;6221065;28;20049;-77
2022/07/06 10:06:03;;;;;;;1.77;0.22;;;;;;;16.99;62.58;102122.81;6218975;28;20045;-77
2022/07/06 10:09:08;;;;;;;1.48;0.40;;;;;;;16.94;62.60;102120.44;6222127;28;20057;-77
2022/07/06 10:12:14;;;;;;;1.10;0.70;;;;;;;16.96;63.63;102125.66;6218432;28;20054;-77
2022/07/06 10:15:18;;;;;;;2.90;0.40;;;;;;;17.04;61.87;102131.38;6197712;28;20049;-77
2022/07/06 10:18:20;;;;;;;0.30;0.17;;;;;;;16.91;60.53;102125.06;6197807;28;20193;-77
2022/07/06 10:21:22;;;;;;;0.35;0.20;;;;;;;16.91;60.29;102131.22;6197959;28;20051;-77
2022/07/06 10:24:24;;;;;;;2.85;0.20;;;;;;;16.94;60.48;102117.78;6197804;28;20050;-77
2022/07/06 10:27:27;;;;;;;1.63;0.30;;;;;;;16.95;60.42;102122.13;6198124;28;20046;-77
2022/07/06 10:30:29;;;;;;;0.57;0.28;;;;;;;17.11;61.57;102129.19;6198636;28;20053;-76
2022/07/06 10:33:32;;;;;;;1.45;0.25;;;;;;;17.28;61.98;102131.72;6202907;28;20050;-76
2022/07/06 10:36:38;;;;;;;3.03;0.50;;;;;;;17.30;60.27;102129.81;6203158;28;20082;-76
2022/07/06 10:43:01;;;;;;;1.45;0.55;;;;;;;17.31;61.86;102128.88;6202237;28;20054;-76
2022/07/06 10:46:10;;;;;;;0.95;0.20;;;;;;;17.21;58.78;102141.88;6202180;28;20054;-77
2022/07/06 10:49:16;;;;;;;0.70;0.30;;;;;;;17.15;57.63;102130.72;6201888;28;20042;-77
2022/07/06 10:52:18;;;;;;;0.30;0.20;;;;;;;17.20;57.40;102124.19;6201114;28;20072;-76
2022/07/06 10:55:30;;;;;;;0.47;0.40;;;;;;;17.24;55.68;102120.41;6201458;28;20637;-76
2022/07/06 10:58:41;;;;;;;2.72;0.28;;;;;;;17.32;56.23;102122.63;6201498;28;20067;-77
2022/07/06 11:02:14;;;;;;;2.60;0.30;;;;;;;17.37;55.96;102120.53;6202005;28;20172;-77
2022/07/06 11:05:40;;;;;;;1.45;0.40;;;;;;;17.49;58.00;102111.84;6219140;28;20056;-78
2022/07/06 11:08:50;;;;;;;2.60;0.30;;;;;;;17.60;56.57;102102.34;6221486;28;20394;-70
2022/07/06 11:11:51;;;;;;;;;;;;;;;17.74;56.93;102099.72;6222919;28;20045;-71
2022/07/06 11:14:54;;;;;;;0.17;0.17;;;;;;;17.86;57.11;102108.75;6222936;28;20008;-77
2022/07/06 11:18:11;;;;;;;0.10;0.10;;;;;;;17.99;55.63;102102.56;6227387;28;20127;-78
2022/07/06 11:21:17;;;;;;;0.13;0.10;;;;;;;18.07;54.76;102107.38;6226936;28;20513;-78
2022/07/06 11:24:20;;;;;;;0.40;0.32;;;;;;;18.12;52.58;102115.06;6225721;28;20050;-79
2022/07/06 11:27:24;;;;;;;1.45;0.32;;;;;;;18.10;52.79;102106.34;6226661;28;20046;-78
2022/07/06 11:30:27;;;;;;;2.70;0.57;;;;;;;18.25;51.73;102103.56;6224537;28;20460;-77
2022/07/06 11:33:31;;;;;;;0.77;0.20;;;;;;;18.48;52.46;102101.22;6224938;28;20057;-79
2022/07/06 11:36:32;;;;;;;0.20;0.20;;;;;;;18.72;51.19;102101.47;6225801;28;20498;-78
2022/07/06 11:39:36;;;;;;;0.20;0.20;;;;;;;18.84;50.93;102095.31;6226152;28;20046;-78
2022/07/06 11:42:37;;;;;;;0.43;0.30;;;;;;;18.91;51.26;102091.28;6224994;28;20057;-77
2022/07/06 11:45:40;;;;;;;0.65;0.20;;;;;;;18.95;51.81;102094.63;6225109;28;20062;-78
2022/07/06 11:48:46;;;;;;;0.15;0.10;;;;;;;19.03;50.51;102089.63;6226075;28;20053;-78
2022/07/06 11:51:48;;;;;;;0.10;0.10;;;;;;;19.18;50.12;102083.25;6226524;28;20421;-78
2022/07/06 11:54:49;;;;;;;0.52;0.28;;;;;;;19.31;51.32;102085.94;6226617;28;20052;-78
2022/07/06 11:57:55;;;;;;;0.10;0.10;;;;;;;19.37;50.13;102077.50;6227636;28;20042;-79
2022/07/06 12:01:08;;;;;;;0.40;0.22;;;;;;;19.16;51.00;102078.97;6226952;28;20070;-78
2022/07/06 12:04:10;;;;;;;0.25;0.17;;;;;;;19.19;48.68;102068.97;6225937;28;20057;-79
2022/07/06 12:07:13;;;;;;;0.60;0.13;;;;;;;19.24;47.90;102072.16;6225571;28;20501;-78
2022/07/06 12:10:14;;;;;;;0.10;0.10;;;;;;;19.28;48.40;102075.47;6225898;28;20069;-78
2022/07/06 12:13:16;;;;;;;0.08;0.08;;;;;;;19.29;48.64;102076.31;6224550;28;20049;-78
2022/07/06 12:16:19;;;;;;;0.50;0.28;;;;;;;19.30;48.44;102065.53;6225946;28;20060;-78
2022/07/06 12:19:22;;;;;;;0.30;0.30;;;;;;;19.29;47.52;102060.31;6226052;28;20406;-78
2022/07/06 12:22:26;;;;;;;0.28;0.20;;;;;;;19.17;49.18;102064.72;6226561;28;20053;-78
2022/07/06 12:25:31;;;;;;;0.38;0.20;;;;;;;19.16;50.77;102062.97;6224326;28;20085;-78
2022/07/06 12:28:32;;;;;;;0.10;0.10;;;;;;;19.13;51.22;102061.38;6226512;28;20046;-78
2022/07/06 12:31:36;;;;;;;0.20;0.20;;;;;;;19.11;50.95;102067.78;6226381;28;20513;-78
2022/07/06 12:34:38;;;;;;;1.73;0.40;;;;;;;19.06;51.27;102061.91;6224151;28;20053;-78
2022/07/06 12:37:54;;;;;;;0.10;0.10;;;;;;;18.92;51.76;102052.19;6227451;28;20494;-78
2022/07/06 12:40:56;;;;;;;0.60;0.30;;;;;;;18.90;52.71;102065.63;6226028;28;20061;-78
2022/07/06 12:44:06;;;;;;;0.17;0.17;;;;;;;18.93;52.65;102061.88;6224911;28;20045;-77
2022/07/06 12:47:10;;;;;;;2.40;0.10;;;;;;;19.18;52.65;102056.59;6224241;28;20053;-78
2022/07/06 12:50:12;;;;;;;0.90;0.22;;;;;;;19.54;52.24;102049.66;6224816;28;20493;-78
2022/07/06 12:53:27;;;;;;;0.88;0.10;;;;;;;19.73;48.31;102049.25;6224395;28;20058;-77
2022/07/06 12:56:28;;;;;;;0.85;0.20;;;;;;;19.88;48.74;102048.13;6222708;28;20141;-78
2022/07/06 12:59:30;;;;;;;0.32;0.13;;;;;;;20.07;47.79;102058.31;6226809;28;20053;-78
2022/07/06 13:02:36;;;;;;;0.20;0.20;;;;;;;20.43;45.52;102051.25;6225908;28;20469;-79
2022/07/06 13:05:38;;;;;;;0.52;0.30;;;;;;;20.23;47.63;102042.91;6224745;28;20046;-78
2022/07/06 13:08:39;;;;;;;2.13;0.22;;;;;;;20.20;48.77;102048.47;6224864;28;20066;-76
2022/07/06 13:11:40;;;;;;;2.47;0.17;;;;;;;20.39;47.10;102041.78;6223488;28;20062;-77
2022/07/06 13:14:42;;;;;;;0.10;0.10;;;;;;;20.53;47.99;102041.66;6222454;28;20046;-76
2022/07/06 13:17:45;;;;;;;0.30;0.20;;;;;;;21.45;47.65;102030.13;6218540;28;20045;-75
2022/07/06 13:20:46;;;;;;;0.10;0.10;;;;;;;21.80;45.39;102039.81;6222533;28;20457;-76
2022/07/06 13:23:47;;;;;;;2.60;0.52;;;;;;;21.25;45.24;102034.28;6222844;28;20057;-76
2022/07/06 13:26:49;;;;;;;0.52;0.20;;;;;;;21.08;46.23;102025.91;6221646;28;20057;-76
2022/07/06 13:29:50;;;;;;;0.88;0.30;;;;;;;20.60;48.53;102026.84;6223193;28;20050;-76
2022/07/06 13:32:52;;;;;;;0.28;0.28;;;;;;;20.50;48.34;102034.72;6223669;28;20046;-76
2022/07/06 13:35:54;;;;;;;2.60;0.17;;;;;;;20.58;48.19;102018.13;6222971;28;20050;-75
2022/07/06 13:38:55;;;;;;;0.20;0.20;;;;;;;21.20;47.91;102019.59;6222226;28;20453;-76
2022/07/06 13:41:57;;;;;;;0.75;0.30;;;;;;;21.74;46.03;102018.91;6222094;28;20054;-76
2022/07/06 13:44:58;;;;;;;2.78;0.28;;;;;;;21.26;44.31;102014.63;6218653;28;20072;-76
2022/07/06 13:48:01;;;;;;;0.08;0.08;;;;;;;20.76;46.55;102013.19;6220494;28;20050;-77
2022/07/06 13:51:02;;;;;;;1.95;0.55;;;;;;;20.58;47.99;102011.94;6222768;28;20057;-78
2022/07/06 13:54:04;;;;;;;1.15;0.10;;;;;;;20.39;46.83;102017.72;6223403;28;20049;-77
2022/07/06 13:57:06;;;;;;;0.52;0.20;;;;;;;20.25;46.48;102010.75;6223443;28;20509;-76
2022/07/06 14:00:09;;;;;;;0.55;0.32;;;;;;;20.00;47.54;102015.25;6223438;28;20050;-75
2022/07/06 14:03:11;;;;;;;0.40;0.10;;;;;;;20.14;47.75;102014.22;6223428;28;20065;-77
2022/07/06 14:06:14;;;;;;;0.10;0.10;;;;;;;20.44;47.32;102004.91;6226823;28;20052;-77
2022/07/06 14:09:16;;;;;;;0.80;0.32;;;;;;;21.37;45.76;102000.44;6227406;28;20049;-77
2022/07/06 14:12:17;;;;;;;0.73;0.25;;;;;;;21.74;43.67;101993.00;6227496;28;20057;-77
2022/07/06 14:15:19;;;;;;;0.80;0.22;;;;;;;21.37;44.70;101991.56;6240449;28;20049;-77